Time;durP1;ratioP1;P1;durP2;ratioP2;P2;SDS_P1;SDS_P2;PMS_P1;PMS_P2;Temp;Humidity;BMP_temperature;BMP_pressure;BME280_temperature;BME280_humidity;BME280_pressure;Samples;Min_cycle;Max_cycle;Signal;HPM_P1;HPM_P2
2022/02/08 10:37:42;;;;;;;469.60;142.63;;;;;;;;;;1693151;28;22133;-49
2022/02/08 10:38:38;;;;;;;458.38;136.05;;;;;;;;;;1690819;29;21709;-42
2022/02/08 10:39:30;;;;;;;453.75;128.90;;;;;;;;;;1692612;28;21559;-43
2022/02/08 10:40:23;;;;;;;450.65;133.00;;;;;;;;;;1691439;28;21945;-43
2022/02/08 10:41:17;;;;;;;434.73;130.18;;;;;;;;;;1695605;28;21611;-45
2022/02/08 10:42:15;;;;;;;418.40;122.70;;;;;;;;;;1693534;28;22086;-44
2022/02/08 10:43:09;;;;;;;428.45;122.28;;;;;;;;;;1692516;28;21608;-45
2022/02/08 10:44:04;;;;;;;416.60;119.85;;;;;;;;;;1690325;28;21628;-50
2022/02/08 10:44:57;;;;;;;416.13;123.40;;;;;;;;;;1690246;28;21590;-45
2022/02/08 10:45:50;;;;;;;399.02;126.32;;;;;;;;;;1686486;29;21863;-45
2022/02/08 10:46:41;;;;;;;370.65;109.40;;;;;;;;;;1682583;29;21681;-45
2022/02/08 10:47:36;;;;;;;365.70;105.07;;;;;;;;;;1684338;29;21552;-44
2022/02/08 10:48:32;;;;;;;367.65;103.93;;;;;;;;;;1687975;29;21756;-45
2022/02/08 10:49:23;;;;;;;358.58;97.70;;;;;;;;;;1689364;29;22150;-45
2022/02/08 10:50:16;;;;;;;329.45;94.10;;;;;;;;;;1682940;29;21659;-46
2022/02/08 10:51:08;;;;;;;343.17;91.47;;;;;;;;;;1688842;28;21711;-56
2022/02/08 10:52:03;;;;;;;307.42;86.45;;;;;;;;;;1691286;28;21652;-53
2022/02/08 10:52:57;;;;;;;295.50;80.32;;;;;;;;;;1691717;29;21552;-60
2022/02/08 10:53:57;;;;;;;296.83;95.60;;;;;;;;;;1688960;29;21552;-60
2022/02/08 10:54:50;;;;;;;290.98;79.47;;;;;;;;;;1689887;29;21502;-59
2022/02/08 10:55:48;;;;;;;258.98;76.32;;;;;;;;;;1685762;29;22433;-58
2022/02/08 10:56:44;;;;;;;263.10;76.97;;;;;;;;;;1687940;29;21605;-58
2022/02/08 10:57:48;;;;;;;244.70;70.47;;;;;;;;;;1692938;28;21653;-58
2022/02/08 10:58:48;;;;;;;245.00;72.70;;;;;;;;;;1692231;28;21646;-64
2022/02/08 11:43:17;;;;;;;;;;;;;;;;;;1666092;29;21688;-61
2022/02/08 11:44:28;;;;;;;67.18;14.95;;;;;;;;;;1678498;29;21554;-57
2022/02/08 11:45:43;;;;;;;65.53;13.10;;;;;;;;;;1662092;29;22117;-62
2022/02/08 11:46:52;;;;;;;46.85;12.80;;;;;;;;;;1666510;29;21611;-61
2022/02/08 11:48:08;;;;;;;60.08;15.93;;;;;;;;;;1678500;29;21609;-62
2022/02/08 11:50:42;;;;;;;45.40;11.50;;;;;;;;;;1680729;29;21582;-63
2022/02/08 11:51:43;;;;;;;45.88;11.63;;;;;;;;;;1680759;29;21696;-63
2022/02/08 11:52:55;;;;;;;38.78;11.45;;;;;;;;;;1678113;29;21627;-63
2022/02/08 11:54:01;;;;;;;64.40;10.73;;;;;;;;;;1680254;29;21682;-63
2022/02/08 11:55:25;;;;;;;40.75;10.55;;;;;;;;;;1681653;29;21560;-61
2022/02/08 11:56:42;;;;;;;40.65;10.23;;;;;;;;;;1681455;29;21575;-63
2022/02/08 11:58:51;;;;;;;46.35;10.02;;;;;;;;;;1661214;29;21724;-64
2022/02/08 12:00:11;;;;;;;45.47;10.88;;;;;;;;;;1680201;29;22186;-63
2022/02/08 12:01:14;;;;;;;65.05;10.93;;;;;;;;;;1677802;29;21726;-64
2022/02/08 12:03:41;;;;;;;60.28;10.00;;;;;;;;;;1666194;29;21687;-62
2022/02/08 12:04:46;;;;;;;64.00;10.60;;;;;;;;;;1681300;29;22697;-67
2022/02/08 12:05:46;;;;;;;54.20;10.80;;;;;;;;;;1681652;29;21931;-63
2022/02/08 12:06:55;;;;;;;59.08;12.52;;;;;;;;;;1681526;29;21551;-59
2022/02/08 12:07:51;;;;;;;95.45;24.23;;;;;;;;;;1679992;29;21552;-50
2022/02/08 12:08:46;;;;;;;84.30;18.58;;;;;;;;;;1672112;29;21632;-48
2022/02/08 12:09:46;;;;;;;107.28;21.02;;;;;;;;;;1670494;29;21837;-51
2022/02/08 12:10:42;;;;;;;59.45;14.25;;;;;;;;;;1672703;29;21670;-60
2022/02/08 12:11:56;;;;;;;73.85;14.35;;;;;;;;;;1672961;29;21569;-61
2022/02/08 12:31:29;;;;;;;60.00;9.70;;;;;;;;;;1653763;29;22240;-64
2022/02/08 12:32:40;;;;;;;72.50;10.88;;;;;;;;;;1680461;29;22266;-62
2022/02/08 12:33:44;;;;;;;73.07;10.30;;;;;;;;;;1679662;29;21556;-64
2022/02/08 12:34:58;;;;;;;69.32;9.43;;;;;;;;;;1679458;29;21557;-65
2022/02/08 12:36:10;;;;;;;85.50;18.23;;;;;;;;;;1679641;29;21553;-63
2022/02/08 12:49:38;;;;;;;57.55;9.02;;;;;;;;;;1649595;29;21497;-62
2022/02/08 12:51:13;;;;;;;45.67;8.95;;;;;;;;;;1676286;29;22181;-58
2022/02/08 12:53:41;;;;;;;75.75;22.10;;;;;;;;;;1675253;29;21641;-57
2022/02/08 12:56:07;;;;;;;36.42;8.52;;;;;;;;;;1656930;29;22092;-64
2022/02/08 12:57:12;;;;;;;38.07;8.37;;;;;;;;;;1675022;29;22209;-63
2022/02/08 12:59:38;;;;;;;42.22;9.57;;;;;;;;;;1665170;29;21729;-63
2022/02/08 13:00:40;;;;;;;37.38;9.25;;;;;;;;;;1669386;29;21558;-64
2022/02/08 13:03:13;;;;;;;34.97;8.60;;;;;;;;;;1652536;29;21651;-62
2022/02/08 13:04:14;;;;;;;26.02;8.75;;;;;;;;;;1669817;29;21675;-59
2022/02/08 13:05:39;;;;;;;25.98;7.40;;;;;;;;;;1674484;29;22118;-61
2022/02/08 14:01:49;;;;;;;23.90;5.80;;;;;;;;;;1687425;29;22027;-58
2022/02/08 14:03:17;;;;;;;33.92;7.53;;;;;;;;;;1689285;29;22034;-59
2022/02/08 14:05:04;;;;;;;21.38;5.38;;;;;;;;;;1685924;29;21591;-58
2022/02/08 14:06:56;;;;;;;33.70;5.95;;;;;;;;;;1686592;29;22191;-58
2022/02/08 14:08:07;;;;;;;24.35;5.70;;;;;;;;;;1687160;29;21685;-58
2022/02/08 14:10:23;;;;;;;37.70;5.93;;;;;;;;;;1679975;29;21618;-58
2022/02/08 14:11:46;;;;;;;19.45;5.35;;;;;;;;;;1687056;29;21659;-58
2022/02/08 14:14:07;;;;;;;31.98;6.35;;;;;;;;;;1686644;29;21641;-58
2022/02/08 14:16:19;;;;;;;17.73;5.18;;;;;;;;;;1683882;29;22149;-58
2022/02/08 14:18:43;;;;;;;21.95;4.88;;;;;;;;;;1685584;29;21915;-57
2022/02/08 14:19:38;;;;;;;18.30;6.18;;;;;;;;;;1684706;29;21477;-58
2022/02/08 14:21:41;;;;;;;28.38;5.38;;;;;;;;;;1672621;29;21545;-58
2022/02/08 14:22:46;;;;;;;17.08;5.32;;;;;;;;;;1677696;29;21542;-58
2022/02/08 14:23:53;;;;;;;17.80;5.22;;;;;;;;;;1683494;29;21948;-59
2022/02/08 14:29:43;;;;;;;16.33;4.80;;;;;;;;;;1682801;29;21611;-58
2022/02/08 14:30:42;;;;;;;28.52;5.10;;;;;;;;;;1678836;29;22044;-58
2022/02/08 14:31:50;;;;;;;22.13;4.65;;;;;;;;;;1680677;29;21539;-59
2022/02/08 14:32:48;;;;;;;15.75;4.65;;;;;;;;;;1681812;29;21570;-59
2022/02/08 14:34:07;;;;;;;25.60;5.10;;;;;;;;;;1684662;29;21564;-58
2022/02/08 14:35:31;;;;;;;20.08;4.80;;;;;;;;;;1684756;29;22124;-58
2022/02/08 14:36:43;;;;;;;23.33;4.68;;;;;;;;;;1682647;29;21647;-59
2022/02/08 14:58:15;;;;;;;12.25;2.83;;;;;;;;;;1678820;29;22154;-58
2022/02/08 15:06:09;;;;;;;7.18;2.97;;;;;;;;;;1653321;29;21555;-58
2022/02/08 15:07:25;;;;;;;6.47;2.80;;;;;;;;;;1684070;29;21577;-58
2022/02/08 15:08:24;;;;;;;14.48;3.03;;;;;;;;;;1683776;29;21995;-58
2022/02/08 15:09:22;;;;;;;17.20;3.35;;;;;;;;;;1683216;29;21661;-58
2022/02/08 15:10:20;;;;;;;5.32;2.40;;;;;;;;;;1684442;29;21551;-58
2022/02/08 15:11:13;;;;;;;5.03;2.60;;;;;;;;;;1679024;29;21699;-58
2022/02/08 15:12:11;;;;;;;10.57;2.80;;;;;;;;;;1681652;29;22100;-58
2022/02/08 15:13:05;;;;;;;12.85;2.97;;;;;;;;;;1682089;29;21606;-59
2022/02/08 15:13:59;;;;;;;13.48;2.67;;;;;;;;;;1684253;29;21553;-59
2022/02/08 15:14:53;;;;;;;8.48;2.40;;;;;;;;;;1681639;29;22067;-58
2022/02/08 15:17:00;;;;;;;3.85;2.05;;;;;;;;;;1660076;29;21543;-58
2022/02/08 15:17:51;;;;;;;9.57;2.58;;;;;;;;;;1683042;29;21571;-59
2022/02/08 15:18:43;;;;;;;6.93;2.17;;;;;;;;;;1684537;29;21492;-58
2022/02/08 15:19:37;;;;;;;5.93;2.30;;;;;;;;;;1684384;29;21513;-58
2022/02/08 15:20:29;;;;;;;12.15;2.33;;;;;;;;;;1683717;29;21500;-59
2022/02/08 15:21:24;;;;;;;5.82;1.95;;;;;;;;;;1681605;29;22172;-58
2022/02/08 15:22:18;;;;;;;9.07;1.85;;;;;;;;;;1683558;29;21529;-58
2022/02/08 15:23:11;;;;;;;8.23;2.25;;;;;;;;;;1684451;29;22078;-58
2022/02/08 15:24:06;;;;;;;3.95;2.00;;;;;;;;;;1682708;29;21869;-59
2022/02/08 15:24:59;;;;;;;2.92;2.10;;;;;;;;;;1676248;29;21598;-58
2022/02/08 15:25:55;;;;;;;6.97;2.03;;;;;;;;;;1676725;29;21552;-59
2022/02/08 15:26:52;;;;;;;7.15;1.80;;;;;;;;;;1676401;29;22257;-58
2022/02/08 15:27:46;;;;;;;4.78;2.15;;;;;;;;;;1678215;29;21508;-59
2022/02/08 15:28:38;;;;;;;10.07;2.20;;;;;;;;;;1669914;29;21670;-58
2022/02/08 15:29:32;;;;;;;3.20;1.98;;;;;;;;;;1670979;29;21546;-59
2022/02/08 15:30:23;;;;;;;4.60;1.73;;;;;;;;;;1679478;29;21604;-58
2022/02/08 15:31:17;;;;;;;2.03;1.50;;;;;;;;;;1682253;29;21535;-59
2022/02/08 15:32:14;;;;;;;6.22;2.17;;;;;;;;;;1683214;29;21927;-58
2022/02/08 15:33:09;;;;;;;8.93;1.95;;;;;;;;;;1681696;29;21575;-58
2022/02/08 15:34:00;;;;;;;3.45;1.67;;;;;;;;;;1684201;29;21613;-58
2022/02/08 15:34:53;;;;;;;4.78;1.65;;;;;;;;;;1684251;29;21518;-57
2022/02/08 15:35:44;;;;;;;1.88;1.60;;;;;;;;;;1681872;29;21646;-57
2022/02/08 15:36:36;;;;;;;5.97;1.90;;;;;;;;;;1684339;29;21595;-57
2022/02/08 15:37:30;;;;;;;4.28;2.00;;;;;;;;;;1684197;29;21565;-58
2022/02/08 15:38:28;;;;;;;5.03;1.48;;;;;;;;;;1681628;29;21529;-57
2022/02/08 15:39:19;;;;;;;4.28;1.58;;;;;;;;;;1684414;29;21723;-58
2022/02/08 15:40:14;;;;;;;7.88;1.70;;;;;;;;;;1684383;29;22128;-58
2022/02/08 15:41:09;;;;;;;2.90;1.73;;;;;;;;;;1682435;29;21595;-58
2022/02/08 15:42:00;;;;;;;2.70;1.30;;;;;;;;;;1681322;29;21875;-58
2022/02/08 15:42:53;;;;;;;3.65;1.35;;;;;;;;;;1684296;29;21940;-58
2022/02/08 15:43:44;;;;;;;4.20;1.75;;;;;;;;;;1681469;29;22058;-57
2022/02/08 15:44:39;;;;;;;4.10;1.40;;;;;;;;;;1684330;29;21556;-57
2022/02/08 15:45:34;;;;;;;3.58;1.60;;;;;;;;;;1684290;29;21600;-58
2022/02/08 15:46:27;;;;;;;4.20;1.42;;;;;;;;;;1681857;29;21568;-58
2022/02/08 15:47:20;;;;;;;3.35;1.77;;;;;;;;;;1684208;29;22036;-57
2022/02/08 15:48:14;;;;;;;2.92;1.27;;;;;;;;;;1684222;29;21538;-58
2022/02/08 15:49:07;;;;;;;1.23;0.90;;;;;;;;;;1681003;29;21549;-57
2022/02/08 15:50:02;;;;;;;2.58;1.42;;;;;;;;;;1684189;29;21562;-57
2022/02/08 15:51:00;;;;;;;3.13;1.98;;;;;;;;;;1676745;29;21912;-58
2022/02/08 15:51:59;;;;;;;5.35;1.70;;;;;;;;;;1675642;29;21665;-58
2022/02/08 15:54:14;;;;;;;2.22;1.40;;;;;;;;;;1668206;29;22110;-58
2022/02/08 15:55:13;;;;;;;2.13;1.40;;;;;;;;;;1678851;29;22166;-57
2022/02/08 15:58:03;;;;;;;3.35;1.50;;;;;;;;;;1490433;32;21598;-58
2022/02/08 16:00:35;;;;;;;6.20;1.38;;;;;;;;;;1695947;29;21658;-58
2022/02/08 16:01:40;;;;;;;2.13;1.13;;;;;;;;;;1691917;29;21556;-58
2022/02/08 16:07:12;;;;;;;1.48;1.30;;;;;;;;;;1693858;29;22070;-58
2022/02/08 16:08:11;;;;;;;1.85;1.35;;;;;;;;;;1692518;29;21548;-58
2022/02/08 16:09:10;;;;;;;1.52;1.42;;;;;;;;;;1690151;29;21546;-58
2022/02/08 16:10:03;;;;;;;4.60;1.35;;;;;;;;;;1691874;29;21640;-58
2022/02/08 16:11:06;;;;;;;2.42;1.40;;;;;;;;;;1688070;29;21546;-58
2022/02/08 16:12:21;;;;;;;3.63;1.30;;;;;;;;;;1684977;29;22091;-57
2022/02/08 16:13:24;;;;;;;1.35;1.10;;;;;;;;;;1693892;29;21505;-58
2022/02/08 16:14:29;;;;;;;2.72;1.45;;;;;;;;;;1690138;29;22265;-58
2022/02/08 16:15:31;;;;;;;1.40;1.30;;;;;;;;;;1692172;29;21552;-58
2022/02/08 16:16:46;;;;;;;1.88;1.75;;;;;;;;;;1682931;29;21571;-58
2022/02/08 16:17:48;;;;;;;1.50;1.40;;;;;;;;;;1683646;29;21657;-58
2022/02/08 16:18:48;;;;;;;2.22;1.33;;;;;;;;;;1692400;29;21623;-58
2022/02/08 16:19:51;;;;;;;2.90;1.55;;;;;;;;;;1683067;29;21548;-58
2022/02/08 16:23:24;;;;;;;1.50;1.25;;;;;;;;;;1688312;29;22000;-58
2022/02/08 16:24:32;;;;;;;1.48;1.38;;;;;;;;;;1689936;29;21625;-58
2022/02/08 16:25:36;;;;;;;1.80;1.20;;;;;;;;;;1688759;29;21951;-58
2022/02/08 16:27:54;;;;;;;1.30;1.20;;;;;;;;;;1689100;29;21507;-58
2022/02/08 16:28:57;;;;;;;3.67;1.67;;;;;;;;;;1692374;29;21618;-57
2022/02/08 16:30:44;;;;;;;4.20;1.40;;;;;;;;;;1694370;29;22051;-57
2022/02/08 16:31:44;;;;;;;;;;;;;;;;;;1692303;29;21975;-57
2022/02/08 16:33:00;;;;;;;1.50;1.40;;;;;;;;;;1684347;29;21365;-57
2022/02/08 16:46:00;;;;;;;3.72;1.50;;;;;;;;;;1682784;29;22166;-57
2022/02/08 16:46:12;;;;;;;1.80;1.70;;;;;;;;;;1688891;29;21681;-58
2022/02/08 16:49:40;;;;;;;2.50;2.05;;;;;;;;;;1682161;29;21850;-58
2022/02/08 16:53:18;;;;;;;2.10;1.90;;;;;;;;;;1690573;29;21504;-58
2022/02/08 16:54:21;;;;;;;2.10;1.90;;;;;;;;;;1694915;29;21490;-58
2022/02/08 16:55:27;;;;;;;2.08;1.67;;;;;;;;;;1687837;29;22015;-58
2022/02/08 16:56:24;;;;;;;2.55;1.73;;;;;;;;;;1685133;29;21546;-58
2022/02/08 16:57:20;;;;;;;2.20;1.92;;;;;;;;;;1689848;29;21516;-58
2022/02/08 16:58:25;;;;;;;2.67;1.85;;;;;;;;;;1689960;29;22188;-58
2022/02/08 16:59:24;;;;;;;2.20;2.00;;;;;;;;;;1691998;29;21584;-58
2022/02/08 17:00:21;;;;;;;2.28;1.42;;;;;;;;;;1692759;29;21644;-57
2022/02/08 17:01:16;;;;;;;2.78;1.70;;;;;;;;;;1692552;29;22125;-58
2022/02/08 17:02:09;;;;;;;4.93;1.80;;;;;;;;;;1690961;29;22209;-58
2022/02/08 17:03:05;;;;;;;3.80;1.85;;;;;;;;;;1691329;29;21556;-58
2022/02/08 17:03:58;;;;;;;1.95;1.73;;;;;;;;;;1689798;29;21698;-58
2022/02/08 17:04:49;;;;;;;3.25;1.90;;;;;;;;;;1691445;29;21559;-58
2022/02/08 17:05:42;;;;;;;6.18;2.00;;;;;;;;;;1691339;29;21711;-58
2022/02/08 17:06:34;;;;;;;2.97;1.90;;;;;;;;;;1689782;29;21842;-58
2022/02/08 17:07:26;;;;;;;2.17;1.98;;;;;;;;;;1681986;29;21694;-58
2022/02/08 17:08:18;;;;;;;2.28;1.92;;;;;;;;;;1682466;29;21548;-58
2022/02/08 17:09:14;;;;;;;2.72;1.60;;;;;;;;;;1684345;29;21694;-58
2022/02/08 17:10:15;;;;;;;2.05;1.85;;;;;;;;;;1685559;29;21532;-57
2022/02/08 17:11:08;;;;;;;2.42;1.95;;;;;;;;;;1686941;29;22068;-58
2022/02/08 17:12:04;;;;;;;2.25;1.83;;;;;;;;;;1685917;29;21546;-58
2022/02/08 17:13:04;;;;;;;1.77;1.67;;;;;;;;;;1690928;29;21582;-58
2022/02/08 17:15:24;;;;;;;3.97;1.88;;;;;;;;;;1678184;29;21530;-58
2022/02/08 17:16:27;;;;;;;2.10;1.80;;;;;;;;;;1679992;29;22028;-58
2022/02/08 17:18:53;;;;;;;1.75;1.65;;;;;;;;;;1685603;29;21692;-58
2022/02/08 17:19:57;;;;;;;3.38;1.83;;;;;;;;;;1688671;29;22087;-57
2022/02/08 17:35:23;;;;;;;1.77;1.67;;;;;;;;;;1685086;29;21653;-57
2022/02/08 17:45:46;;;;;;;1.88;1.77;;;;;;;;;;1689689;29;22302;-58
2022/02/08 17:46:48;;;;;;;2.10;2.00;;;;;;;;;;1691215;29;21930;-58
2022/02/08 17:47:41;;;;;;;2.45;2.25;;;;;;;;;;1687252;29;21923;-58
2022/02/08 17:48:36;;;;;;;1.75;1.65;;;;;;;;;;1686939;29;21857;-57
2022/02/08 17:49:27;;;;;;;2.03;1.88;;;;;;;;;;1685244;29;21550;-57
2022/02/08 17:50:20;;;;;;;2.22;2.03;;;;;;;;;;1686412;29;22012;-57
2022/02/08 17:51:11;;;;;;;2.28;2.08;;;;;;;;;;1689132;29;22018;-58
2022/02/08 17:52:04;;;;;;;2.13;1.92;;;;;;;;;;1688470;29;21589;-57
2022/02/08 17:52:56;;;;;;;2.00;1.90;;;;;;;;;;1684446;29;21564;-57
2022/02/08 17:53:48;;;;;;;1.70;1.60;;;;;;;;;;1688699;29;21535;-57
2022/02/08 17:54:39;;;;;;;3.63;2.05;;;;;;;;;;1684447;29;21544;-58
2022/02/08 17:55:32;;;;;;;4.78;2.58;;;;;;;;;;1685236;29;21598;-58
2022/02/08 17:56:23;;;;;;;4.55;2.03;;;;;;;;;;1687014;29;21497;-58
2022/02/08 17:57:15;;;;;;;2.10;1.90;;;;;;;;;;1688233;29;22105;-58
2022/02/08 17:58:06;;;;;;;1.90;1.60;;;;;;;;;;1685383;29;21540;-59
2022/02/08 17:58:58;;;;;;;6.03;1.92;;;;;;;;;;1684503;29;21521;-58
2022/02/08 17:59:50;;;;;;;2.20;2.00;;;;;;;;;;1684560;29;21570;-58
2022/02/08 18:00:42;;;;;;;2.35;2.15;;;;;;;;;;1685063;29;21653;-58
2022/02/08 18:01:34;;;;;;;1.80;1.70;;;;;;;;;;1681885;29;21846;-58
2022/02/08 18:02:27;;;;;;;2.10;2.00;;;;;;;;;;1683802;29;21534;-58
2022/02/08 18:03:19;;;;;;;2.90;2.08;;;;;;;;;;1687556;29;21583;-58
2022/02/08 18:04:12;;;;;;;2.25;2.08;;;;;;;;;;1687020;29;21573;-58
2022/02/08 18:05:05;;;;;;;2.17;1.98;;;;;;;;;;1686709;29;21842;-58
2022/02/08 18:05:56;;;;;;;2.10;1.95;;;;;;;;;;1685045;29;22119;-58
2022/02/08 18:06:49;;;;;;;2.38;2.17;;;;;;;;;;1684617;29;21846;-58
2022/02/08 18:07:41;;;;;;;2.13;2.00;;;;;;;;;;1684389;29;21590;-58
2022/02/08 18:08:33;;;;;;;1.95;1.83;;;;;;;;;;1686780;29;21560;-59
2022/02/08 18:09:27;;;;;;;1.88;1.77;;;;;;;;;;1686191;29;21543;-58
2022/02/08 18:10:22;;;;;;;1.50;1.40;;;;;;;;;;1685196;29;21550;-58
2022/02/08 18:11:14;;;;;;;2.58;1.95;;;;;;;;;;1685066;29;21659;-57
2022/02/08 18:12:07;;;;;;;2.40;2.22;;;;;;;;;;1686252;29;21893;-58
2022/02/08 18:13:02;;;;;;;2.47;1.80;;;;;;;;;;1688050;29;21852;-58
2022/02/08 18:13:53;;;;;;;2.25;2.05;;;;;;;;;;1690065;29;21674;-58
2022/02/08 18:14:51;;;;;;;3.88;2.22;;;;;;;;;;1687099;29;21712;-58
2022/02/08 18:15:42;;;;;;;2.10;1.83;;;;;;;;;;1688399;29;21648;-58
2022/02/08 18:16:35;;;;;;;5.35;1.80;;;;;;;;;;1689827;29;21578;-58
2022/02/08 18:17:32;;;;;;;2.20;2.00;;;;;;;;;;1687299;29;21696;-58
2022/02/08 18:18:26;;;;;;;2.47;2.03;;;;;;;;;;1688547;29;22055;-58
2022/02/08 18:19:22;;;;;;;5.75;2.20;;;;;;;;;;1689662;29;21773;-58
2022/02/08 18:20:24;;;;;;;2.25;2.05;;;;;;;;;;1689412;29;22138;-58
2022/02/08 18:21:22;;;;;;;19.70;2.97;;;;;;;;;;1688534;29;21728;-58
2022/02/08 18:22:27;;;;;;;3.97;1.88;;;;;;;;;;1689410;29;21716;-58
2022/02/08 18:25:01;;;;;;;2.40;2.13;;;;;;;;;;1482353;32;21677;-56
2022/02/08 18:27:05;;;;;;;2.20;1.83;;;;;;;;;;1694064;29;21661;-58
2022/02/08 18:27:32;;;;;;;2.30;2.08;;;;;;;;;;1689490;29;21527;-58
2022/02/08 18:28:43;;;;;;;4.78;2.00;;;;;;;;;;1691829;29;21593;-58
2022/02/08 18:57:10;;;;;;;2.38;2.17;;;;;;;;;;1694691;29;21633;-58
2022/02/08 19:03:23;;;;;;;1.90;1.67;;;;;;;;;;1695717;29;21673;-59
2022/02/08 19:04:47;;;;;;;2.20;1.60;;;;;;;;;;1688992;28;21525;-57
2022/02/08 19:07:50;;;;;;;2.33;2.13;;;;;;;;;;1694172;29;21542;-58
2022/02/08 19:09:12;;;;;;;1.75;1.65;;;;;;;;;;1695722;29;21673;-58
2022/02/08 19:10:30;;;;;;;9.40;2.10;;;;;;;;;;1693025;29;22215;-58
2022/02/08 19:11:53;;;;;;;8.18;1.90;;;;;;;;;;1689224;29;21613;-58
2022/02/08 19:13:07;;;;;;;11.55;1.98;;;;;;;;;;1693143;29;21863;-58
2022/02/08 19:18:41;;;;;;;2.65;1.75;;;;;;;;;;1674074;29;21661;-58
2022/02/08 19:19:45;;;;;;;1.95;1.75;;;;;;;;;;1686519;29;21600;-58
2022/02/08 19:20:41;;;;;;;1.60;1.50;;;;;;;;;;1693440;29;22035;-58
2022/02/08 19:21:45;;;;;;;4.88;2.00;;;;;;;;;;1693132;29;21490;-58
2022/02/08 19:22:37;;;;;;;3.33;1.92;;;;;;;;;;1695656;29;21912;-58
2022/02/08 19:23:28;;;;;;;5.55;2.00;;;;;;;;;;1695765;29;21543;-57
2022/02/08 19:24:22;;;;;;;4.35;1.90;;;;;;;;;;1693808;28;21610;-57
2022/02/08 19:25:14;;;;;;;1.90;1.73;;;;;;;;;;1692783;29;22003;-57
2022/02/08 19:26:07;;;;;;;4.20;1.92;;;;;;;;;;1694704;29;21549;-58
2022/02/08 19:27:02;;;;;;;1.88;1.50;;;;;;;;;;1693645;29;21555;-57
2022/02/08 19:27:55;;;;;;;2.78;1.80;;;;;;;;;;1694076;29;22060;-57
2022/02/08 19:28:46;;;;;;;2.10;1.90;;;;;;;;;;1694918;29;22130;-57
2022/02/08 19:29:38;;;;;;;2.80;1.75;;;;;;;;;;1695249;28;21887;-56
2022/02/08 19:30:31;;;;;;;7.70;1.65;;;;;;;;;;1695861;29;21550;-57
2022/02/08 19:31:22;;;;;;;2.13;1.65;;;;;;;;;;1693296;29;21562;-57
2022/02/08 19:32:14;;;;;;;1.65;1.55;;;;;;;;;;1695674;29;22066;-57
2022/02/08 19:33:06;;;;;;;2.15;1.60;;;;;;;;;;1695706;29;21605;-56
2022/02/08 19:34:01;;;;;;;1.88;1.67;;;;;;;;;;1692714;29;21522;-57
2022/02/08 19:34:53;;;;;;;1.75;1.60;;;;;;;;;;1695749;29;22092;-57
2022/02/08 19:35:44;;;;;;;1.75;1.55;;;;;;;;;;1692755;29;21560;-57
2022/02/08 19:36:37;;;;;;;1.60;1.50;;;;;;;;;;1688688;29;21610;-57
2022/02/08 19:37:29;;;;;;;1.55;1.45;;;;;;;;;;1691237;29;21719;-57
2022/02/08 19:38:25;;;;;;;1.95;1.85;;;;;;;;;;1691091;29;21600;-57
2022/02/08 19:39:18;;;;;;;2.03;1.40;;;;;;;;;;1688512;29;21540;-58
2022/02/08 19:40:12;;;;;;;1.98;1.42;;;;;;;;;;1691210;29;21996;-58
2022/02/08 19:41:03;;;;;;;1.30;1.20;;;;;;;;;;1691266;29;21581;-58
2022/02/08 19:41:56;;;;;;;1.73;1.55;;;;;;;;;;1689131;29;21564;-58
2022/02/08 19:42:50;;;;;;;3.03;1.52;;;;;;;;;;1691439;29;21771;-58
2022/02/08 19:43:41;;;;;;;3.88;1.75;;;;;;;;;;1691205;29;21593;-58
2022/02/08 19:44:33;;;;;;;1.70;1.60;;;;;;;;;;1676412;29;21585;-58
2022/02/08 19:45:26;;;;;;;2.13;1.70;;;;;;;;;;1677762;29;21505;-58
2022/02/08 19:46:18;;;;;;;1.52;1.42;;;;;;;;;;1685012;29;21577;-58
2022/02/08 19:47:11;;;;;;;1.65;1.50;;;;;;;;;;1687565;29;21618;-58
2022/02/08 19:48:04;;;;;;;1.58;1.42;;;;;;;;;;1691137;29;21592;-58
2022/02/08 19:48:57;;;;;;;1.50;1.40;;;;;;;;;;1691127;29;21547;-58
2022/02/08 19:49:48;;;;;;;1.95;1.75;;;;;;;;;;1691317;29;21506;-58
2022/02/08 19:50:42;;;;;;;1.95;1.85;;;;;;;;;;1690109;29;21572;-57
2022/02/08 19:51:34;;;;;;;2.20;2.00;;;;;;;;;;1689856;29;21575;-58
2022/02/08 19:52:28;;;;;;;1.83;1.73;;;;;;;;;;1691292;29;21639;-58
2022/02/08 19:53:20;;;;;;;1.88;1.50;;;;;;;;;;1689809;29;21554;-57
2022/02/08 19:54:18;;;;;;;2.13;1.92;;;;;;;;;;1686991;29;21501;-57
2022/02/08 19:56:27;;;;;;;1.63;1.52;;;;;;;;;;1675995;29;22162;-58
2022/02/08 19:57:24;;;;;;;1.70;1.60;;;;;;;;;;1690714;29;21536;-57
2022/02/08 19:58:22;;;;;;;4.88;1.83;;;;;;;;;;1691114;29;21495;-57
2022/02/08 19:59:19;;;;;;;1.60;1.50;;;;;;;;;;1691218;29;22112;-57
2022/02/08 20:00:18;;;;;;;2.72;1.63;;;;;;;;;;1688996;29;21639;-57
2022/02/08 20:01:13;;;;;;;1.70;1.60;;;;;;;;;;1688791;29;22096;-57
2022/02/08 20:02:10;;;;;;;1.67;1.58;;;;;;;;;;1691123;29;21667;-57
2022/02/08 20:03:04;;;;;;;1.77;1.52;;;;;;;;;;1688506;29;21633;-59
2022/02/08 20:03:59;;;;;;;1.75;1.65;;;;;;;;;;1691072;29;21530;-57
2022/02/08 20:04:51;;;;;;;3.30;1.55;;;;;;;;;;1691134;29;21669;-57
2022/02/08 20:05:45;;;;;;;1.73;1.63;;;;;;;;;;1689041;29;21932;-58
2022/02/08 20:06:37;;;;;;;1.50;1.40;;;;;;;;;;1688419;29;21562;-58
2022/02/08 20:07:28;;;;;;;1.75;1.65;;;;;;;;;;1691158;29;22157;-58
2022/02/08 20:08:21;;;;;;;1.70;1.60;;;;;;;;;;1689495;29;21601;-58
2022/02/08 20:09:14;;;;;;;1.70;1.60;;;;;;;;;;1689092;29;21584;-57
2022/02/08 20:10:08;;;;;;;1.73;1.55;;;;;;;;;;1691004;29;21720;-58
2022/02/08 20:11:00;;;;;;;1.63;1.52;;;;;;;;;;1690585;29;21623;-58
2022/02/08 20:11:52;;;;;;;1.55;1.45;;;;;;;;;;1689513;29;21764;-58
2022/02/08 20:12:43;;;;;;;1.80;1.70;;;;;;;;;;1690007;29;21892;-58
2022/02/08 20:13:45;;;;;;;1.70;1.60;;;;;;;;;;1690987;29;22069;-58
2022/02/08 20:14:36;;;;;;;1.75;1.65;;;;;;;;;;1684495;29;22120;-58
2022/02/08 20:15:29;;;;;;;1.65;1.38;;;;;;;;;;1684521;29;21661;-58
2022/02/08 20:16:20;;;;;;;1.73;1.63;;;;;;;;;;1687726;29;21516;-57
2022/02/08 20:17:12;;;;;;;1.95;1.85;;;;;;;;;;1690017;29;21580;-58
2022/02/08 20:18:04;;;;;;;1.83;1.73;;;;;;;;;;1690922;29;21546;-57
2022/02/08 20:18:59;;;;;;;1.70;1.60;;;;;;;;;;1690185;29;21531;-58
2022/02/08 20:19:53;;;;;;;1.70;1.60;;;;;;;;;;1689795;29;21612;-58
2022/02/08 20:20:45;;;;;;;1.92;1.75;;;;;;;;;;1691260;29;21578;-58
2022/02/08 20:21:37;;;;;;;1.55;1.45;;;;;;;;;;1690920;29;21499;-58
2022/02/08 20:22:29;;;;;;;1.63;1.52;;;;;;;;;;1690152;29;21535;-58
2022/02/08 20:23:22;;;;;;;1.50;1.40;;;;;;;;;;1689170;29;22055;-57
2022/02/08 20:24:16;;;;;;;1.40;1.30;;;;;;;;;;1683698;29;21491;-57
2022/02/08 20:25:09;;;;;;;1.83;1.73;;;;;;;;;;1676713;29;21968;-57
2022/02/08 20:26:03;;;;;;;1.40;1.30;;;;;;;;;;1680816;29;21695;-58
2022/02/08 20:27:29;;;;;;;1.55;1.45;;;;;;;;;;1682005;29;21592;-57
2022/02/08 20:28:23;;;;;;;1.63;1.52;;;;;;;;;;1682016;29;21672;-57
2022/02/08 20:29:21;;;;;;;1.52;1.42;;;;;;;;;;1691006;29;21524;-56
2022/02/08 20:30:15;;;;;;;1.45;1.35;;;;;;;;;;1689197;29;21636;-57
2022/02/08 20:31:07;;;;;;;1.48;1.38;;;;;;;;;;1690813;29;21747;-58
2022/02/08 20:31:59;;;;;;;1.50;1.40;;;;;;;;;;1690965;29;21551;-58
2022/02/08 20:32:52;;;;;;;1.42;1.33;;;;;;;;;;1690949;29;21563;-57
2022/02/08 20:33:46;;;;;;;1.48;1.38;;;;;;;;;;1691023;29;21558;-57
2022/02/08 20:34:39;;;;;;;1.30;1.20;;;;;;;;;;1688768;29;21624;-58
2022/02/08 20:35:32;;;;;;;1.40;1.30;;;;;;;;;;1691130;29;21555;-57
2022/02/08 20:36:23;;;;;;;1.35;1.25;;;;;;;;;;1689253;29;21551;-57
2022/02/08 20:37:15;;;;;;;1.52;1.42;;;;;;;;;;1687952;29;22139;-56
2022/02/08 20:38:08;;;;;;;1.38;1.27;;;;;;;;;;1690955;29;21565;-57
2022/02/08 20:38:59;;;;;;;1.40;1.30;;;;;;;;;;1690655;29;21575;-57
2022/02/08 20:39:51;;;;;;;1.45;1.33;;;;;;;;;;1688329;29;21574;-57
2022/02/08 20:40:43;;;;;;;1.40;1.20;;;;;;;;;;1691005;29;21572;-57
2022/02/08 20:41:35;;;;;;;2.38;1.50;;;;;;;;;;1690880;29;21671;-57
2022/02/08 20:42:26;;;;;;;1.42;1.27;;;;;;;;;;1683250;29;21586;-57
2022/02/08 20:43:19;;;;;;;1.48;1.38;;;;;;;;;;1682862;29;22128;-57
2022/02/08 20:44:14;;;;;;;1.20;1.10;;;;;;;;;;1688417;29;22115;-57
2022/02/08 20:45:09;;;;;;;1.40;1.30;;;;;;;;;;1689381;29;21772;-57
2022/02/08 20:46:02;;;;;;;1.40;1.25;;;;;;;;;;1690000;29;21548;-56
2022/02/08 20:47:02;;;;;;;1.40;1.27;;;;;;;;;;1690070;29;21661;-58
2022/02/08 20:47:53;;;;;;;1.90;1.40;;;;;;;;;;1684269;29;21690;-57
2022/02/08 20:48:47;;;;;;;1.33;1.20;;;;;;;;;;1690776;29;21566;-59
2022/02/08 20:49:39;;;;;;;1.40;1.30;;;;;;;;;;1689978;29;21593;-57
2022/02/08 20:50:31;;;;;;;2.95;1.20;;;;;;;;;;1691723;29;21609;-58
2022/02/08 20:51:27;;;;;;;1.02;1.02;;;;;;;;;;1691784;29;21530;-59
2022/02/08 20:52:20;;;;;;;1.25;0.90;;;;;;;;;;1692181;29;22122;-59
2022/02/08 20:53:15;;;;;;;4.35;1.27;;;;;;;;;;1690185;29;21501;-59
2022/02/08 20:54:07;;;;;;;1.15;1.05;;;;;;;;;;1691690;29;21622;-57
2022/02/08 20:55:06;;;;;;;0.95;0.95;;;;;;;;;;1690753;29;21624;-55
2022/02/08 20:56:08;;;;;;;1.08;1.08;;;;;;;;;;1688639;29;22061;-57
2022/02/08 20:57:10;;;;;;;1.25;1.15;;;;;;;;;;1689158;29;22120;-56
2022/02/08 20:58:04;;;;;;;1.42;1.10;;;;;;;;;;1690881;29;21638;-56
2022/02/08 20:59:07;;;;;;;3.10;1.63;;;;;;;;;;1690838;29;22169;-57
2022/02/08 20:59:59;;;;;;;1.52;1.33;;;;;;;;;;1689510;29;21838;-57
2022/02/08 21:00:52;;;;;;;1.52;1.42;;;;;;;;;;1690375;29;21547;-60